sensor_id;sensor_type;location;lat;lon;timestamp;pressure;altitude;pressure_sealevel;temperature;humidity
34235;BME280;20500;49.856;20.290;2023-02-21T12:49:08;98360.76;;;9.70;74.42
34235;BME280;20500;49.856;20.290;2023-02-21T12:52:22;98371.02;;;9.68;74.51
34235;BME280;20500;49.856;20.290;2023-02-21T12:55:34;98373.89;;;9.63;74.69
34235;BME280;20500;49.856;20.290;2023-02-21T12:58:48;98383.14;;;9.57;74.63
34235;BME280;20500;49.856;20.290;2023-02-21T13:01:58;98378.29;;;9.52;74.77
34235;BME280;20500;49.856;20.290;2023-02-21T13:05:10;98367.39;;;9.49;74.88
34235;BME280;20500;49.856;20.290;2023-02-21T13:08:20;98372.86;;;9.41;74.76
34235;BME280;20500;49.856;20.290;2023-02-21T13:11:33;98368.58;;;9.31;74.81
34235;BME280;20500;49.856;20.290;2023-02-21T13:14:44;98365.40;;;9.28;74.79
34235;BME280;20500;49.856;20.290;2023-02-21T13:17:59;98362.54;;;9.33;75.03
34235;BME280;20500;49.856;20.290;2023-02-21T13:24:40;98358.20;;;9.62;75.34
34235;BME280;20500;49.856;20.290;2023-02-21T13:27:56;98358.02;;;9.81;75.40
34235;BME280;20500;49.856;20.290;2023-02-21T13:31:04;98356.89;;;9.99;75.42
34235;BME280;20500;49.856;20.290;2023-02-21T13:34:16;98352.76;;;10.16;75.34
34235;BME280;20500;49.856;20.290;2023-02-21T13:37:27;98352.13;;;10.30;75.19
34235;BME280;20500;49.856;20.290;2023-02-21T13:40:37;98358.14;;;10.38;75.11
34235;BME280;20500;49.856;20.290;2023-02-21T13:43:51;98356.75;;;10.47;75.04
34235;BME280;20500;49.856;20.290;2023-02-21T13:47:09;98359.00;;;10.52;74.81
34235;BME280;20500;49.856;20.290;2023-02-21T13:54:07;98362.36;;;10.49;74.60
34235;BME280;20500;49.856;20.290;2023-02-21T13:57:30;98363.46;;;10.46;74.50
34235;BME280;20500;49.856;20.290;2023-02-21T14:03:59;98366.10;;;10.45;74.27
34235;BME280;20500;49.856;20.290;2023-02-21T14:07:56;98374.14;;;10.45;74.09
34235;BME280;20500;49.856;20.290;2023-02-21T14:11:15;98381.36;;;10.42;73.96
34235;BME280;20500;49.856;20.290;2023-02-21T14:14:26;98386.41;;;10.40;73.84
34235;BME280;20500;49.856;20.290;2023-02-21T14:17:37;98393.77;;;10.35;73.55
34235;BME280;20500;49.856;20.290;2023-02-21T14:20:47;98394.66;;;10.31;73.52
34235;BME280;20500;49.856;20.290;2023-02-21T14:23:58;98399.38;;;10.29;73.49
34235;BME280;20500;49.856;20.290;2023-02-21T14:27:29;98393.21;;;10.26;73.39
34235;BME280;20500;49.856;20.290;2023-02-21T14:30:35;98372.52;;;10.27;73.34
34235;BME280;20500;49.856;20.290;2023-02-21T14:33:43;98374.73;;;10.24;73.23
34235;BME280;20500;49.856;20.290;2023-02-21T14:36:50;98377.16;;;10.22;73.11
34235;BME280;20500;49.856;20.290;2023-02-21T14:39:59;98377.27;;;10.24;73.10
34235;BME280;20500;49.856;20.290;2023-02-21T14:43:25;98383.30;;;10.22;73.07
34235;BME280;20500;49.856;20.290;2023-02-21T14:50:20;98399.89;;;10.15;72.95
34235;BME280;20500;49.856;20.290;2023-02-21T14:53:46;98399.53;;;10.11;72.92
34235;BME280;20500;49.856;20.290;2023-02-21T15:00:40;98409.23;;;10.06;72.69
34235;BME280;20500;49.856;20.290;2023-02-21T15:04:01;98404.02;;;10.04;72.52
34235;BME280;20500;49.856;20.290;2023-02-21T15:07:22;98407.58;;;10.00;72.40
34235;BME280;20500;49.856;20.290;2023-02-21T15:10:30;98408.36;;;9.97;72.44
34235;BME280;20500;49.856;20.290;2023-02-21T15:13:37;98411.34;;;9.95;72.31
34235;BME280;20500;49.856;20.290;2023-02-21T15:16:45;98419.36;;;9.93;72.25
34235;BME280;20500;49.856;20.290;2023-02-21T15:20:05;98425.23;;;9.91;72.14
34235;BME280;20500;49.856;20.290;2023-02-21T15:23:19;98422.96;;;9.86;72.01
34235;BME280;20500;49.856;20.290;2023-02-21T15:26:33;98423.95;;;9.81;72.16
34235;BME280;20500;49.856;20.290;2023-02-21T15:29:37;98426.77;;;9.77;72.13
34235;BME280;20500;49.856;20.290;2023-02-21T15:32:46;98428.69;;;9.73;72.01
34235;BME280;20500;49.856;20.290;2023-02-21T15:36:00;98428.95;;;9.70;71.94
34235;BME280;20500;49.856;20.290;2023-02-21T15:39:09;98420.45;;;9.68;71.96
34235;BME280;20500;49.856;20.290;2023-02-21T15:42:18;98418.96;;;9.67;72.00
34235;BME280;20500;49.856;20.290;2023-02-21T15:45:28;98422.47;;;9.67;71.90
34235;BME280;20500;49.856;20.290;2023-02-21T15:48:36;98418.14;;;9.65;71.95
34235;BME280;20500;49.856;20.290;2023-02-21T15:51:42;98429.34;;;9.64;71.92
34235;BME280;20500;49.856;20.290;2023-02-21T15:54:49;98429.96;;;9.60;71.95
34235;BME280;20500;49.856;20.290;2023-02-21T15:58:02;98441.13;;;9.57;71.86
34235;BME280;20500;49.856;20.290;2023-02-21T16:01:10;98441.29;;;9.53;71.93
34235;BME280;20500;49.856;20.290;2023-02-21T16:04:20;98448.75;;;9.48;71.90
34235;BME280;20500;49.856;20.290;2023-02-21T16:07:31;98451.46;;;9.43;71.89
34235;BME280;20500;49.856;20.290;2023-02-21T16:10:39;98455.01;;;9.40;71.94
34235;BME280;20500;49.856;20.290;2023-02-21T16:13:46;98462.67;;;9.38;71.92
34235;BME280;20500;49.856;20.290;2023-02-21T16:17:06;98463.16;;;9.31;72.03
34235;BME280;20500;49.856;20.290;2023-02-21T16:20:18;98471.48;;;9.26;71.81
34235;BME280;20500;49.856;20.290;2023-02-21T16:23:31;98472.02;;;9.20;71.67
34235;BME280;20500;49.856;20.290;2023-02-21T16:26:38;98476.66;;;9.15;71.88
34235;BME280;20500;49.856;20.290;2023-02-21T16:29:44;98476.81;;;9.11;71.83
34235;BME280;20500;49.856;20.290;2023-02-21T16:32:49;98478.42;;;9.07;71.89
34235;BME280;20500;49.856;20.290;2023-02-21T16:35:56;98480.16;;;9.03;71.91
34235;BME280;20500;49.856;20.290;2023-02-21T16:39:08;98483.79;;;9.00;71.87
34235;BME280;20500;49.856;20.290;2023-02-21T16:42:15;98489.55;;;9.00;71.86
34235;BME280;20500;49.856;20.290;2023-02-21T16:45:22;98491.09;;;8.99;71.75
34235;BME280;20500;49.856;20.290;2023-02-21T16:48:29;98491.58;;;8.98;71.87
34235;BME280;20500;49.856;20.290;2023-02-21T16:51:37;98492.33;;;8.98;71.83
34235;BME280;20500;49.856;20.290;2023-02-21T16:54:47;98493.58;;;8.98;71.82
34235;BME280;20500;49.856;20.290;2023-02-21T16:57:55;98496.75;;;8.98;71.71
34235;BME280;20500;49.856;20.290;2023-02-21T17:01:09;98495.84;;;8.96;71.84
34235;BME280;20500;49.856;20.290;2023-02-21T17:04:18;98497.04;;;8.92;71.68
34235;BME280;20500;49.856;20.290;2023-02-21T17:07:24;98498.36;;;8.89;71.74
34235;BME280;20500;49.856;20.290;2023-02-21T17:10:29;98500.13;;;8.86;71.74
34235;BME280;20500;49.856;20.290;2023-02-21T17:13:36;98498.58;;;8.84;71.74
34235;BME280;20500;49.856;20.290;2023-02-21T17:16:41;98506.70;;;8.81;71.83
34235;BME280;20500;49.856;20.290;2023-02-21T17:19:49;98511.02;;;8.78;71.80
34235;BME280;20500;49.856;20.290;2023-02-21T17:22:55;98512.70;;;8.76;71.81
34235;BME280;20500;49.856;20.290;2023-02-21T17:26:03;98514.23;;;8.75;71.84
34235;BME280;20500;49.856;20.290;2023-02-21T17:29:10;98518.65;;;8.72;71.73
34235;BME280;20500;49.856;20.290;2023-02-21T17:32:16;98525.77;;;8.68;71.79
34235;BME280;20500;49.856;20.290;2023-02-21T17:35:22;98534.94;;;8.66;71.85
34235;BME280;20500;49.856;20.290;2023-02-21T17:38:29;98540.42;;;8.64;71.81
34235;BME280;20500;49.856;20.290;2023-02-21T17:41:33;98547.86;;;8.62;71.86
34235;BME280;20500;49.856;20.290;2023-02-21T17:44:43;98550.88;;;8.61;71.98
34235;BME280;20500;49.856;20.290;2023-02-21T17:47:51;98550.85;;;8.59;72.00
34235;BME280;20500;49.856;20.290;2023-02-21T17:50:59;98547.47;;;8.56;71.97
34235;BME280;20500;49.856;20.290;2023-02-21T17:54:05;98549.81;;;8.55;71.96
34235;BME280;20500;49.856;20.290;2023-02-21T17:57:10;98550.55;;;8.53;72.07
34235;BME280;20500;49.856;20.290;2023-02-21T18:00:20;98550.21;;;8.51;72.11
34235;BME280;20500;49.856;20.290;2023-02-21T18:03:28;98551.17;;;8.48;72.00
34235;BME280;20500;49.856;20.290;2023-02-21T18:06:32;98551.91;;;8.46;72.10
34235;BME280;20500;49.856;20.290;2023-02-21T18:09:39;98550.83;;;8.43;72.15
34235;BME280;20500;49.856;20.290;2023-02-21T18:12:43;98555.46;;;8.41;72.23
34235;BME280;20500;49.856;20.290;2023-02-21T18:15:52;98557.50;;;8.37;72.18
34235;BME280;20500;49.856;20.290;2023-02-21T18:18:59;98560.39;;;8.34;72.14
34235;BME280;20500;49.856;20.290;2023-02-21T18:22:03;98566.02;;;8.27;72.13
34235;BME280;20500;49.856;20.290;2023-02-21T18:25:10;98560.77;;;8.24;72.18
34235;BME280;20500;49.856;20.290;2023-02-21T18:28:18;98558.66;;;8.24;72.21
34235;BME280;20500;49.856;20.290;2023-02-21T18:31:24;98559.67;;;8.23;72.17
34235;BME280;20500;49.856;20.290;2023-02-21T18:34:30;98562.30;;;8.24;72.20
34235;BME280;20500;49.856;20.290;2023-02-21T18:37:36;98567.70;;;8.25;72.23
34235;BME280;20500;49.856;20.290;2023-02-21T18:40:41;98565.09;;;8.28;72.34
34235;BME280;20500;49.856;20.290;2023-02-21T18:43:49;98568.86;;;8.29;72.31
34235;BME280;20500;49.856;20.290;2023-02-21T18:46:56;98573.41;;;8.29;72.29
34235;BME280;20500;49.856;20.290;2023-02-21T18:50:04;98573.90;;;8.31;72.44
34235;BME280;20500;49.856;20.290;2023-02-21T18:53:11;98576.77;;;8.33;72.46
34235;BME280;20500;49.856;20.290;2023-02-21T18:56:18;98592.38;;;8.31;72.42
34235;BME280;20500;49.856;20.290;2023-02-21T18:59:25;98599.30;;;8.24;72.27
34235;BME280;20500;49.856;20.290;2023-02-21T19:02:31;98610.20;;;8.15;72.52
34235;BME280;20500;49.856;20.290;2023-02-21T19:05:38;98611.95;;;8.04;72.64
34235;BME280;20500;49.856;20.290;2023-02-21T19:08:45;98617.30;;;7.97;72.78
34235;BME280;20500;49.856;20.290;2023-02-21T19:11:53;98620.86;;;7.90;72.89
34235;BME280;20500;49.856;20.290;2023-02-21T19:15:00;98622.51;;;7.83;73.10
34235;BME280;20500;49.856;20.290;2023-02-21T19:18:06;98623.39;;;7.77;73.41
34235;BME280;20500;49.856;20.290;2023-02-21T19:21:11;98622.88;;;7.73;73.49
34235;BME280;20500;49.856;20.290;2023-02-21T19:24:18;98624.75;;;7.73;73.62
34235;BME280;20500;49.856;20.290;2023-02-21T19:27:22;98626.54;;;7.68;73.48
34235;BME280;20500;49.856;20.290;2023-02-21T19:30:30;98641.42;;;7.61;73.50
34235;BME280;20500;49.856;20.290;2023-02-21T19:33:38;98647.43;;;7.56;73.48
34235;BME280;20500;49.856;20.290;2023-02-21T19:36:42;98653.30;;;7.49;73.64
34235;BME280;20500;49.856;20.290;2023-02-21T19:39:49;98658.83;;;7.43;73.45
34235;BME280;20500;49.856;20.290;2023-02-21T19:42:55;98661.69;;;7.39;73.38
34235;BME280;20500;49.856;20.290;2023-02-21T19:45:59;98660.84;;;7.33;73.49
34235;BME280;20500;49.856;20.290;2023-02-21T19:49:06;98663.96;;;7.29;73.60
34235;BME280;20500;49.856;20.290;2023-02-21T19:52:21;98672.40;;;7.25;73.62
34235;BME280;20500;49.856;20.290;2023-02-21T19:55:26;98680.02;;;7.18;73.50
34235;BME280;20500;49.856;20.290;2023-02-21T19:58:32;98686.64;;;7.12;73.39
34235;BME280;20500;49.856;20.290;2023-02-21T20:01:38;98685.96;;;7.05;73.39
34235;BME280;20500;49.856;20.290;2023-02-21T20:04:45;98693.17;;;6.99;73.45
34235;BME280;20500;49.856;20.290;2023-02-21T20:07:52;98700.71;;;6.94;73.50
34235;BME280;20500;49.856;20.290;2023-02-21T20:10:59;98703.11;;;6.91;73.61
34235;BME280;20500;49.856;20.290;2023-02-21T20:14:03;98703.98;;;6.88;73.50
34235;BME280;20500;49.856;20.290;2023-02-21T20:17:09;98706.80;;;6.83;73.47
34235;BME280;20500;49.856;20.290;2023-02-21T20:20:13;98707.15;;;6.78;73.55
34235;BME280;20500;49.856;20.290;2023-02-21T20:23:20;98711.28;;;6.77;73.73
34235;BME280;20500;49.856;20.290;2023-02-21T20:26:27;98710.87;;;6.74;73.79
34235;BME280;20500;49.856;20.290;2023-02-21T20:29:33;98718.09;;;6.70;73.72
34235;BME280;20500;49.856;20.290;2023-02-21T20:32:40;98720.29;;;6.67;73.73
34235;BME280;20500;49.856;20.290;2023-02-21T20:35:46;98723.84;;;6.62;73.75
34235;BME280;20500;49.856;20.290;2023-02-21T20:38:52;98733.48;;;6.60;73.80
34235;BME280;20500;49.856;20.290;2023-02-21T20:41:59;98736.29;;;6.57;73.73
34235;BME280;20500;49.856;20.290;2023-02-21T20:45:07;98734.69;;;6.55;73.69
34235;BME280;20500;49.856;20.290;2023-02-21T20:48:15;98738.98;;;6.54;73.65
34235;BME280;20500;49.856;20.290;2023-02-21T20:51:29;98744.33;;;6.53;73.84
34235;BME280;20500;49.856;20.290;2023-02-21T20:54:36;98750.52;;;6.52;73.93
34235;BME280;20500;49.856;20.290;2023-02-21T20:57:41;98753.35;;;6.53;73.88
34235;BME280;20500;49.856;20.290;2023-02-21T21:00:48;98758.17;;;6.51;73.72
34235;BME280;20500;49.856;20.290;2023-02-21T21:03:54;98762.23;;;6.51;73.85
34235;BME280;20500;49.856;20.290;2023-02-21T21:07:05;98766.69;;;6.51;73.67
34235;BME280;20500;49.856;20.290;2023-02-21T21:10:13;98769.66;;;6.50;73.76
34235;BME280;20500;49.856;20.290;2023-02-21T21:13:20;98773.52;;;6.49;73.73
34235;BME280;20500;49.856;20.290;2023-02-21T21:16:26;98776.65;;;6.47;73.57
34235;BME280;20500;49.856;20.290;2023-02-21T21:19:30;98774.79;;;6.46;73.64
34235;BME280;20500;49.856;20.290;2023-02-21T21:22:37;98778.85;;;6.42;73.34
34235;BME280;20500;49.856;20.290;2023-02-21T21:25:44;98774.84;;;6.37;73.19
34235;BME280;20500;49.856;20.290;2023-02-21T21:28:51;98777.14;;;6.34;73.02
34235;BME280;20500;49.856;20.290;2023-02-21T21:31:58;98777.23;;;6.31;73.14
34235;BME280;20500;49.856;20.290;2023-02-21T21:35:05;98778.71;;;6.31;73.39
34235;BME280;20500;49.856;20.290;2023-02-21T21:38:11;98784.27;;;6.30;73.14
34235;BME280;20500;49.856;20.290;2023-02-21T21:41:20;98784.77;;;6.28;73.22
34235;BME280;20500;49.856;20.290;2023-02-21T21:44:27;98784.05;;;6.30;73.20
34235;BME280;20500;49.856;20.290;2023-02-21T21:47:33;98781.16;;;6.33;73.17
34235;BME280;20500;49.856;20.290;2023-02-21T21:50:41;98783.47;;;6.38;73.25
34235;BME280;20500;49.856;20.290;2023-02-21T21:53:48;98785.83;;;6.41;73.14
34235;BME280;20500;49.856;20.290;2023-02-21T21:56:52;98786.34;;;6.41;72.96
34235;BME280;20500;49.856;20.290;2023-02-21T21:59:59;98789.18;;;6.42;72.99
34235;BME280;20500;49.856;20.290;2023-02-21T22:03:05;98788.61;;;6.42;72.98
34235;BME280;20500;49.856;20.290;2023-02-21T22:06:13;98789.65;;;6.42;73.12
34235;BME280;20500;49.856;20.290;2023-02-21T22:09:17;98791.05;;;6.39;72.84
34235;BME280;20500;49.856;20.290;2023-02-21T22:12:24;98792.41;;;6.33;72.89
34235;BME280;20500;49.856;20.290;2023-02-21T22:15:31;98791.58;;;6.27;72.86
34235;BME280;20500;49.856;20.290;2023-02-21T22:18:37;98792.37;;;6.23;72.97
34235;BME280;20500;49.856;20.290;2023-02-21T22:21:45;98786.34;;;6.22;72.84
34235;BME280;20500;49.856;20.290;2023-02-21T22:24:51;98788.22;;;6.20;72.75
34235;BME280;20500;49.856;20.290;2023-02-21T22:28:00;98789.33;;;6.18;72.70
34235;BME280;20500;49.856;20.290;2023-02-21T22:31:09;98792.77;;;6.18;72.63
34235;BME280;20500;49.856;20.290;2023-02-21T22:34:16;98790.77;;;6.16;72.54
34235;BME280;20500;49.856;20.290;2023-02-21T22:37:27;98790.98;;;6.14;72.57
34235;BME280;20500;49.856;20.290;2023-02-21T22:40:32;98796.11;;;6.13;72.59
34235;BME280;20500;49.856;20.290;2023-02-21T22:43:40;98798.33;;;6.16;72.60
34235;BME280;20500;49.856;20.290;2023-02-21T22:46:48;98802.94;;;6.17;72.51
34235;BME280;20500;49.856;20.290;2023-02-21T22:50:02;98807.23;;;6.12;72.47
34235;BME280;20500;49.856;20.290;2023-02-21T22:53:12;98811.36;;;6.09;72.41
34235;BME280;20500;49.856;20.290;2023-02-21T22:56:24;98812.11;;;6.05;72.49
34235;BME280;20500;49.856;20.290;2023-02-21T22:59:32;98817.19;;;6.01;72.52
34235;BME280;20500;49.856;20.290;2023-02-21T23:02:39;98817.79;;;5.99;72.38
34235;BME280;20500;49.856;20.290;2023-02-21T23:05:44;98819.42;;;5.95;72.37
34235;BME280;20500;49.856;20.290;2023-02-21T23:08:50;98823.03;;;5.92;72.43
34235;BME280;20500;49.856;20.290;2023-02-21T23:11:58;98825.68;;;5.92;72.44
34235;BME280;20500;49.856;20.290;2023-02-21T23:15:06;98830.10;;;5.95;72.60
34235;BME280;20500;49.856;20.290;2023-02-21T23:18:14;98830.45;;;5.97;72.44
34235;BME280;20500;49.856;20.290;2023-02-21T23:21:24;98833.34;;;6.00;72.52
34235;BME280;20500;49.856;20.290;2023-02-21T23:24:31;98836.25;;;6.02;72.45
34235;BME280;20500;49.856;20.290;2023-02-21T23:27:37;98837.47;;;6.00;72.33
34235;BME280;20500;49.856;20.290;2023-02-21T23:30:44;98839.16;;;6.00;72.51
34235;BME280;20500;49.856;20.290;2023-02-21T23:33:52;98841.77;;;5.99;72.46
34235;BME280;20500;49.856;20.290;2023-02-21T23:36:59;98840.57;;;6.00;72.33
34235;BME280;20500;49.856;20.290;2023-02-21T23:40:13;98843.73;;;5.99;72.25
34235;BME280;20500;49.856;20.290;2023-02-21T23:43:25;98844.96;;;5.97;72.27
34235;BME280;20500;49.856;20.290;2023-02-21T23:46:33;98842.80;;;5.96;72.16
34235;BME280;20500;49.856;20.290;2023-02-21T23:49:39;98845.43;;;5.91;72.05
34235;BME280;20500;49.856;20.290;2023-02-21T23:52:48;98841.92;;;5.86;72.18
34235;BME280;20500;49.856;20.290;2023-02-21T23:55:55;98844.89;;;5.85;72.27
34235;BME280;20500;49.856;20.290;2023-02-21T23:59:04;98848.80;;;5.84;72.27
